createdAt,value
2023-05-21T00:00:21.405Z,81.75
2023-05-21T00:01:53.761Z,82.65
2023-05-21T00:03:27.176Z,81.60
2023-05-21T00:04:58.929Z,81.27
2023-05-21T00:06:31.333Z,81.08
2023-05-21T00:08:03.018Z,81.46
2023-05-21T00:09:35.471Z,81.67
2023-05-21T00:11:07.270Z,82.28
2023-05-21T00:12:39.027Z,82.58
2023-05-21T00:14:10.811Z,82.79
2023-05-21T00:15:42.684Z,82.78
2023-05-21T00:17:14.347Z,82.06
2023-05-21T00:18:46.022Z,82.78
2023-05-21T00:20:17.707Z,82.93
2023-05-21T00:21:49.604Z,83.24
2023-05-21T00:23:21.532Z,83.23
2023-05-21T00:24:53.307Z,83.10
2023-05-21T00:26:25.246Z,83.41
2023-05-21T00:28:01.301Z,83.64
2023-05-21T00:29:32.994Z,83.65
2023-05-21T00:31:04.587Z,83.65
2023-05-21T00:32:36.984Z,83.84
2023-05-21T00:34:08.822Z,83.76
2023-05-21T00:35:40.697Z,83.46
2023-05-21T00:37:15.289Z,83.76
2023-05-21T00:38:46.967Z,82.99
2023-05-21T00:40:18.896Z,82.99
2023-05-21T00:41:51.035Z,83.67
2023-05-21T00:43:26.581Z,83.80
2023-05-21T00:44:58.369Z,84.23
2023-05-21T00:46:30.461Z,83.75
2023-05-21T00:48:02.848Z,84.25
2023-05-21T00:49:34.568Z,84.57
2023-05-21T00:51:06.969Z,84.83
2023-05-21T00:52:42.257Z,84.93
2023-05-21T00:54:14.526Z,85.26
2023-05-21T00:55:46.800Z,84.83
2023-05-21T00:57:22.966Z,84.87
2023-05-21T00:58:57.182Z,84.93
2023-05-21T01:00:28.847Z,85.18
2023-05-21T01:02:05.462Z,85.54
2023-05-21T01:03:38.647Z,85.93
2023-05-21T01:05:11.236Z,86.40
2023-05-21T01:06:42.837Z,86.33
2023-05-21T01:08:14.970Z,86.51
2023-05-21T01:09:46.686Z,86.82
2023-05-21T01:11:19.108Z,87.17
2023-05-21T01:12:52.674Z,86.56
2023-05-21T01:14:25.047Z,85.93
2023-05-21T01:15:58.769Z,86.23
2023-05-21T01:17:31.787Z,85.72
2023-05-21T01:19:05.656Z,85.12
2023-05-21T01:20:37.835Z,84.74
2023-05-21T01:22:12.478Z,85.03
2023-05-21T01:23:44.575Z,85.55
2023-05-21T01:25:16.329Z,84.68
2023-05-21T01:26:48.237Z,84.93
2023-05-21T01:28:19.971Z,85.45
2023-05-21T01:29:51.698Z,85.12
2023-05-21T01:31:31.300Z,85.00
2023-05-21T01:33:04.902Z,84.99
2023-05-21T01:35:06.284Z,85.13
2023-05-21T01:36:43.775Z,85.35
2023-05-21T01:38:50.873Z,85.77
2023-05-21T01:40:47.201Z,85.69
2023-05-21T01:42:20.962Z,85.49
2023-05-21T01:43:56.400Z,85.06
2023-05-21T01:45:31.333Z,84.94
2023-05-21T01:47:04.884Z,85.74
2023-05-21T01:48:37.561Z,85.34
2023-05-21T01:50:10.047Z,85.72
2023-05-21T01:51:43.228Z,86.29
2023-05-21T01:53:16.045Z,87.08
2023-05-21T01:54:50.002Z,86.33
2023-05-21T01:56:25.908Z,85.90
2023-05-21T01:58:02.024Z,86.02
2023-05-21T01:59:35.072Z,87.09
2023-05-21T02:01:06.821Z,87.13
2023-05-21T02:02:38.505Z,87.47
2023-05-21T02:04:10.269Z,88.15
2023-05-21T02:05:41.966Z,87.80
2023-05-21T02:07:15.114Z,87.58
2023-05-21T02:08:48.434Z,87.51
2023-05-21T02:10:20.262Z,86.98
2023-05-21T02:11:51.948Z,87.46
2023-05-21T02:13:26.457Z,87.98
2023-05-21T02:14:58.718Z,88.03
2023-05-21T02:16:30.446Z,87.90
2023-05-21T02:18:02.482Z,88.47
2023-05-21T02:19:34.462Z,88.83
2023-05-21T02:21:06.248Z,88.36
2023-05-21T02:22:43.262Z,87.75
2023-05-21T02:24:14.929Z,88.12
2023-05-21T02:25:46.533Z,87.81
2023-05-21T02:27:18.283Z,88.07
2023-05-21T02:28:49.956Z,88.31
2023-05-21T02:30:21.760Z,88.36
2023-05-21T02:31:53.349Z,88.30
2023-05-21T02:33:24.948Z,88.34
2023-05-21T02:34:56.822Z,88.15
2023-05-21T02:36:28.883Z,88.30
2023-05-21T02:38:02.962Z,88.13
2023-05-21T02:39:34.602Z,88.94
2023-05-21T02:41:06.430Z,89.24
2023-05-21T02:42:40.255Z,89.14
2023-05-21T02:44:14.240Z,89.01
2023-05-21T02:45:46.372Z,89.38
2023-05-21T02:47:19.624Z,89.25
2023-05-21T02:48:51.267Z,89.20
2023-05-21T02:50:23.425Z,89.43
2023-05-21T02:52:00.489Z,89.50
2023-05-21T02:53:32.254Z,89.78
2023-05-21T02:55:04.182Z,89.55
2023-05-21T02:56:35.791Z,89.64
2023-05-21T02:58:07.491Z,89.40
2023-05-21T02:59:39.135Z,89.06
2023-05-21T03:01:11.071Z,88.91
2023-05-21T03:02:43.599Z,88.86
2023-05-21T03:04:17.209Z,89.69
2023-05-21T03:05:48.888Z,90.08
2023-05-21T03:07:20.515Z,90.00
2023-05-21T03:08:52.190Z,90.11
2023-05-21T03:10:23.802Z,89.96
2023-05-21T03:11:55.571Z,89.60
2023-05-21T03:13:27.235Z,89.72
2023-05-21T03:14:59.739Z,89.83
2023-05-21T03:16:34.832Z,89.53
2023-05-21T03:18:06.844Z,89.37
2023-05-21T03:19:38.460Z,89.43
2023-05-21T03:21:13.216Z,89.56
2023-05-21T03:22:46.467Z,89.57
2023-05-21T03:24:18.733Z,89.18
2023-05-21T03:25:53.577Z,88.96
2023-05-21T03:27:27.080Z,88.55
2023-05-21T03:28:59.750Z,88.42
2023-05-21T03:30:31.831Z,88.56
2023-05-21T03:32:37.980Z,89.11
2023-05-21T03:34:10.942Z,89.58
2023-05-21T03:35:42.810Z,89.75
2023-05-21T03:37:14.537Z,90.13
2023-05-21T03:38:47.435Z,90.13
2023-05-21T03:40:19.055Z,90.19
2023-05-21T03:41:50.802Z,90.10
2023-05-21T03:43:32.439Z,90.00
2023-05-21T03:45:04.227Z,89.94
2023-05-21T03:46:45.697Z,90.02
2023-05-21T03:48:27.027Z,90.05
2023-05-21T03:49:59.022Z,89.28
2023-05-21T03:51:31.968Z,88.69
2023-05-21T03:53:03.937Z,88.96
2023-05-21T03:54:35.913Z,88.72
2023-05-21T03:56:10.787Z,88.76
2023-05-21T03:57:42.810Z,88.71
2023-05-21T03:59:14.514Z,88.77
2023-05-21T04:00:47.432Z,88.96
2023-05-21T04:02:19.154Z,88.67
2023-05-21T04:03:50.984Z,88.84
2023-05-21T04:05:22.852Z,88.46
2023-05-21T04:06:55.350Z,88.53
2023-05-21T04:08:27.922Z,88.72
2023-05-21T04:09:59.745Z,88.86
2023-05-21T04:11:31.436Z,89.12
2023-05-21T04:13:03.085Z,89.10
2023-05-21T04:14:36.840Z,88.92
2023-05-21T04:16:09.522Z,88.87
2023-05-21T04:17:41.623Z,88.37
2023-05-21T04:19:13.604Z,88.40
2023-05-21T04:20:45.241Z,89.10
2023-05-21T04:22:16.970Z,89.02
2023-05-21T04:23:48.599Z,88.85
2023-05-21T04:25:30.414Z,88.96
2023-05-21T04:27:02.141Z,88.67
2023-05-21T04:28:36.380Z,88.36
2023-05-21T04:30:08.532Z,88.69
2023-05-21T04:31:41.583Z,88.96
2023-05-21T04:33:17.940Z,88.95
2023-05-21T04:34:50.108Z,89.76
2023-05-21T04:36:21.724Z,89.75
2023-05-21T04:37:54.983Z,89.87
2023-05-21T04:39:26.732Z,90.19
2023-05-21T04:40:58.792Z,90.26
2023-05-21T04:42:30.522Z,90.18
2023-05-21T04:44:02.454Z,90.48
2023-05-21T04:45:36.873Z,90.21
2023-05-21T04:47:08.955Z,90.12
2023-05-21T04:48:42.276Z,90.33
2023-05-21T04:50:14.110Z,90.47
2023-05-21T04:51:46.854Z,90.54
2023-05-21T04:53:18.494Z,90.55
2023-05-21T04:54:50.780Z,90.33
2023-05-21T04:56:22.483Z,90.65
2023-05-21T04:57:54.131Z,90.99
2023-05-21T04:59:25.932Z,90.73
2023-05-21T05:00:57.926Z,90.15
2023-05-21T05:02:29.619Z,89.95
2023-05-21T05:04:01.390Z,89.39
2023-05-21T05:05:33.107Z,89.05
2023-05-21T05:07:05.073Z,88.91
2023-05-21T05:08:36.983Z,88.89
2023-05-21T05:10:09.296Z,88.59
2023-05-21T05:11:41.004Z,88.70
2023-05-21T05:13:12.730Z,88.98
2023-05-21T05:14:44.542Z,89.87
2023-05-21T05:16:24.699Z,90.46
2023-05-21T05:17:56.835Z,90.26
2023-05-21T05:19:28.795Z,90.99
2023-05-21T05:21:01.390Z,90.94
2023-05-21T05:22:33.965Z,90.84
2023-05-21T05:24:06.084Z,90.46
2023-05-21T05:25:38.692Z,90.11
2023-05-21T05:27:11.190Z,90.25
2023-05-21T05:28:43.351Z,90.08
2023-05-21T05:30:15.210Z,90.00
2023-05-21T05:31:46.928Z,89.65
2023-05-21T05:33:20.025Z,89.57
2023-05-21T05:34:51.775Z,89.70
2023-05-21T05:36:24.199Z,89.54
2023-05-21T05:37:57.014Z,89.21
2023-05-21T05:39:28.763Z,88.95
2023-05-21T05:41:00.598Z,88.82
2023-05-21T05:42:32.243Z,89.30
2023-05-21T05:44:08.428Z,88.86
2023-05-21T05:45:42.339Z,88.88
2023-05-21T05:47:18.228Z,89.27
2023-05-21T05:48:49.936Z,88.83
2023-05-21T05:50:22.076Z,88.92
2023-05-21T05:51:54.587Z,89.31
2023-05-21T05:53:26.608Z,89.41
2023-05-21T05:54:58.848Z,89.19
2023-05-21T05:56:30.616Z,89.25
2023-05-21T05:58:02.295Z,89.52
2023-05-21T05:59:34.001Z,89.35
2023-05-21T06:01:06.724Z,88.34
2023-05-21T06:02:38.509Z,88.25
2023-05-21T06:04:10.379Z,87.90
2023-05-21T06:05:42.109Z,87.45
2023-05-21T06:07:13.746Z,87.54
2023-05-21T06:08:46.290Z,87.27
2023-05-21T06:10:18.778Z,87.51
2023-05-21T06:11:50.611Z,87.62
2023-05-21T06:13:22.247Z,87.05
2023-05-21T06:14:54.080Z,86.92
2023-05-21T06:16:25.873Z,87.09
2023-05-21T06:17:57.894Z,86.35
2023-05-21T06:19:29.544Z,86.45
2023-05-21T06:21:01.598Z,86.75
2023-05-21T06:22:33.925Z,86.06
2023-05-21T06:24:06.174Z,86.06
2023-05-21T06:25:38.511Z,85.92
2023-05-21T06:27:10.392Z,85.78
2023-05-21T06:28:42.686Z,84.84
2023-05-21T06:30:15.418Z,83.46
2023-05-21T06:31:47.272Z,82.56
2023-05-21T06:33:19.391Z,79.93
2023-05-21T06:34:51.210Z,78.04
2023-05-21T06:36:26.733Z,76.73
2023-05-21T06:37:58.359Z,76.06
2023-05-21T06:39:30.007Z,74.87
2023-05-21T06:41:03.926Z,73.93
2023-05-21T06:42:51.920Z,73.47
2023-05-21T06:44:26.448Z,74.11
2023-05-21T06:46:08.973Z,71.66
2023-05-21T06:47:43.940Z,69.77
2023-05-21T06:49:16.265Z,69.72
2023-05-21T06:50:48.408Z,70.60
2023-05-21T06:52:20.164Z,70.83
2023-05-21T06:53:52.294Z,69.28
2023-05-21T06:55:24.004Z,69.96
2023-05-21T06:57:16.569Z,71.66
2023-05-21T06:58:48.878Z,74.29
2023-05-21T07:00:21.381Z,74.12
2023-05-21T07:01:53.393Z,73.72
2023-05-21T07:03:25.951Z,73.03
2023-05-21T07:04:57.668Z,72.47
2023-05-21T07:06:30.219Z,72.83
2023-05-21T07:08:02.215Z,73.08
2023-05-21T07:09:34.390Z,73.52
2023-05-21T07:11:06.129Z,72.88
2023-05-21T07:12:37.855Z,71.93
2023-05-21T07:14:09.974Z,72.52
2023-05-21T07:15:42.629Z,72.87
2023-05-21T07:17:14.239Z,73.56
2023-05-21T07:18:46.806Z,72.86
2023-05-21T07:20:18.515Z,73.35
2023-05-21T07:21:53.121Z,72.68
2023-05-21T07:23:24.958Z,72.90
2023-05-21T07:24:56.720Z,72.71
2023-05-21T07:26:28.581Z,71.77
2023-05-21T07:28:00.961Z,71.00
2023-05-21T07:29:35.758Z,69.65
2023-05-21T07:31:08.452Z,69.32
2023-05-21T07:32:45.242Z,69.63
2023-05-21T07:34:17.027Z,70.32
2023-05-21T07:35:48.955Z,70.54
2023-05-21T07:37:21.382Z,68.97
2023-05-21T07:38:53.134Z,69.81
2023-05-21T07:40:24.871Z,70.45
2023-05-21T07:41:56.517Z,70.00
2023-05-21T07:43:28.205Z,68.47
2023-05-21T07:45:02.193Z,68.29
2023-05-21T07:46:37.345Z,67.86
2023-05-21T07:48:09.422Z,66.76
2023-05-21T07:49:49.761Z,66.00
2023-05-21T07:51:21.814Z,67.58
2023-05-21T07:52:53.457Z,67.48
2023-05-21T07:54:26.367Z,68.20
2023-05-21T07:55:59.690Z,66.88
2023-05-21T07:57:34.121Z,66.88
2023-05-21T07:59:08.233Z,66.47
2023-05-21T08:00:47.024Z,66.94
2023-05-21T08:02:18.854Z,64.14
2023-05-21T08:03:51.460Z,64.77
2023-05-21T08:05:24.394Z,64.64
2023-05-21T08:06:56.534Z,64.44
2023-05-21T08:08:28.213Z,63.70
2023-05-21T08:10:02.824Z,62.40
2023-05-21T08:11:35.010Z,62.98
2023-05-21T08:13:06.764Z,62.03
2023-05-21T08:14:38.548Z,63.62
2023-05-21T08:16:11.412Z,62.90
2023-05-21T08:17:43.438Z,63.35
2023-05-21T08:19:15.409Z,62.37
2023-05-21T08:20:48.348Z,62.23
2023-05-21T08:22:21.703Z,61.47
2023-05-21T08:23:54.305Z,62.91
2023-05-21T08:25:27.125Z,61.95
2023-05-21T08:27:00.138Z,60.87
2023-05-21T08:28:31.803Z,61.33
2023-05-21T08:30:05.398Z,61.65
2023-05-21T08:31:37.150Z,61.07
2023-05-21T08:33:08.895Z,59.76
2023-05-21T08:34:40.999Z,60.48
2023-05-21T08:36:36.051Z,60.56
2023-05-21T08:38:12.869Z,61.90
2023-05-21T08:39:51.008Z,61.62
2023-05-21T08:41:24.492Z,61.28
2023-05-21T08:42:56.285Z,59.88
2023-05-21T08:44:44.543Z,58.07
2023-05-21T08:46:18.981Z,57.80
2023-05-21T08:47:56.886Z,57.61
2023-05-21T08:49:33.566Z,57.49
2023-05-21T08:51:05.765Z,57.61
2023-05-21T08:52:41.927Z,57.98
2023-05-21T08:54:14.062Z,57.61
2023-05-21T08:55:47.000Z,57.52
2023-05-21T08:57:20.412Z,57.00
2023-05-21T08:58:52.469Z,57.70
2023-05-21T09:00:26.639Z,58.08
2023-05-21T09:02:00.027Z,57.88
2023-05-21T09:03:41.213Z,57.77
2023-05-21T09:05:15.565Z,58.42
2023-05-21T09:06:47.913Z,57.52
2023-05-21T09:08:29.725Z,56.92
2023-05-21T09:10:26.860Z,58.14
2023-05-21T09:11:58.562Z,58.04
2023-05-21T09:13:32.372Z,57.38
2023-05-21T09:15:07.622Z,57.68
2023-05-21T09:16:42.107Z,56.54
2023-05-21T09:18:14.743Z,55.76
2023-05-21T09:20:14.641Z,55.39
2023-05-21T09:21:52.833Z,55.83
2023-05-21T09:23:28.914Z,56.26
2023-05-21T09:25:04.663Z,56.83
2023-05-21T09:26:36.630Z,54.77
2023-05-21T09:28:15.441Z,54.34
2023-05-21T09:29:47.184Z,54.53
2023-05-21T09:31:20.178Z,53.81
2023-05-21T09:32:57.582Z,54.25
2023-05-21T09:34:29.333Z,53.59
2023-05-21T09:36:02.119Z,54.72
2023-05-21T09:37:37.776Z,52.71
2023-05-21T09:39:11.271Z,53.25
2023-05-21T09:40:48.888Z,53.37
2023-05-21T09:42:22.306Z,54.17
2023-05-21T09:43:59.894Z,53.13
2023-05-21T09:45:31.741Z,54.79
2023-05-21T09:47:04.057Z,54.83
2023-05-21T09:48:38.196Z,54.69
2023-05-21T09:50:18.974Z,55.61
2023-05-21T09:51:50.606Z,54.72
2023-05-21T09:53:22.361Z,54.06
2023-05-21T09:54:54.123Z,54.96
2023-05-21T09:56:29.369Z,54.65
2023-05-21T09:58:04.621Z,53.25
2023-05-21T09:59:38.291Z,53.73
2023-05-21T10:01:11.353Z,54.94
2023-05-21T10:02:46.859Z,54.43
2023-05-21T10:04:19.058Z,54.87
2023-05-21T10:05:53.755Z,53.94
2023-05-21T10:07:27.102Z,53.92
2023-05-21T10:09:04.745Z,53.98
2023-05-21T10:10:38.862Z,55.22
2023-05-21T10:12:11.334Z,54.41
2023-05-21T10:13:48.964Z,53.95
2023-05-21T10:15:25.423Z,54.90
2023-05-21T10:16:57.419Z,55.59
2023-05-21T10:18:30.817Z,54.63
2023-05-21T10:20:02.819Z,54.20
2023-05-21T10:21:34.950Z,55.25
2023-05-21T10:23:07.431Z,55.84
2023-05-21T10:24:40.772Z,56.22
2023-05-21T10:26:12.997Z,55.70
2023-05-21T10:27:45.302Z,56.08
2023-05-21T10:29:19.896Z,55.49
2023-05-21T10:30:53.529Z,56.18
2023-05-21T10:32:30.376Z,55.22
2023-05-21T10:34:05.899Z,54.82
2023-05-21T10:35:40.407Z,55.38
2023-05-21T10:37:13.225Z,55.51
2023-05-21T10:38:45.798Z,56.56
2023-05-21T10:40:18.598Z,57.25
2023-05-21T10:42:14.562Z,55.49
2023-05-21T10:44:04.259Z,54.78
2023-05-21T10:46:00.023Z,54.50
2023-05-21T10:47:57.490Z,54.63
2023-05-21T10:49:45.908Z,54.45
2023-05-21T10:51:39.835Z,54.55
2023-05-21T10:53:44.439Z,55.56
2023-05-21T10:55:47.103Z,55.77
2023-05-21T10:57:27.902Z,54.73
2023-05-21T10:59:15.262Z,55.55
2023-05-21T11:00:47.382Z,54.96
2023-05-21T11:02:21.043Z,54.84
2023-05-21T11:03:52.975Z,55.50
2023-05-21T11:05:52.584Z,55.15
2023-05-21T11:07:51.473Z,54.89
2023-05-21T11:09:23.189Z,55.29
2023-05-21T11:10:58.002Z,54.38
2023-05-21T11:12:34.914Z,54.36
2023-05-21T11:14:26.515Z,54.03
2023-05-21T11:15:58.267Z,54.06
2023-05-21T11:17:39.018Z,53.89
2023-05-21T11:19:17.346Z,53.95
2023-05-21T11:20:52.016Z,53.91
2023-05-21T11:22:26.792Z,53.24
2023-05-21T11:24:06.490Z,53.80
2023-05-21T11:25:38.218Z,53.88
2023-05-21T11:27:10.082Z,54.16
2023-05-21T11:28:41.725Z,53.31
2023-05-21T11:30:18.397Z,52.64
2023-05-21T11:32:03.040Z,53.05
2023-05-21T11:33:34.736Z,53.48
2023-05-21T11:35:07.133Z,52.38
2023-05-21T11:36:39.694Z,52.35
2023-05-21T11:38:11.405Z,53.59
2023-05-21T11:39:46.656Z,51.76
2023-05-21T11:41:20.155Z,51.67
2023-05-21T11:42:53.840Z,52.42
2023-05-21T11:44:41.406Z,52.28
2023-05-21T11:46:14.219Z,51.90
2023-05-21T11:47:48.255Z,51.38
2023-05-21T11:49:22.118Z,50.80
2023-05-21T11:50:53.956Z,50.91
2023-05-21T11:52:26.869Z,50.73
2023-05-21T11:53:59.108Z,49.70
2023-05-21T11:55:31.155Z,48.91
2023-05-21T11:57:06.936Z,49.23
2023-05-21T12:00:18.268Z,49.54
2023-05-21T12:01:50.342Z,49.05
2023-05-21T12:03:26.737Z,48.87
2023-05-21T12:05:00.543Z,48.78
2023-05-21T12:06:32.460Z,49.06
2023-05-21T12:08:08.614Z,48.82
2023-05-21T12:09:41.805Z,48.38
2023-05-21T12:11:13.859Z,47.53
2023-05-21T12:12:54.939Z,47.68
2023-05-21T12:14:28.079Z,46.20
2023-05-21T12:15:59.824Z,45.75
2023-05-21T12:17:31.912Z,46.16
2023-05-21T12:19:03.926Z,43.98
2023-05-21T12:20:35.797Z,44.44
2023-05-21T12:22:08.107Z,43.99
2023-05-21T12:23:39.806Z,44.36
2023-05-21T12:25:12.165Z,43.89
2023-05-21T12:26:45.980Z,44.10
2023-05-21T12:28:17.855Z,44.46
2023-05-21T12:29:54.252Z,44.76
2023-05-21T12:31:27.502Z,44.22
2023-05-21T12:32:59.873Z,43.61
2023-05-21T12:34:46.206Z,43.31
2023-05-21T12:36:31.913Z,43.17
2023-05-21T12:38:04.025Z,42.90
2023-05-21T12:39:40.369Z,41.28
2023-05-21T12:41:12.035Z,41.42
2023-05-21T12:42:44.500Z,41.25
2023-05-21T12:44:16.400Z,41.59
2023-05-21T12:45:48.303Z,41.52
2023-05-21T12:47:23.573Z,42.19
2023-05-21T12:48:56.016Z,43.66
2023-05-21T12:50:27.660Z,43.18
2023-05-21T12:51:59.294Z,44.44
2023-05-21T12:53:42.346Z,44.01
2023-05-21T12:55:15.030Z,43.87
2023-05-21T12:56:46.809Z,44.16
2023-05-21T12:58:22.115Z,44.49
2023-05-21T12:59:58.408Z,45.22
2023-05-21T13:01:30.571Z,45.27
2023-05-21T13:03:04.429Z,44.85
2023-05-21T13:04:36.860Z,44.52
2023-05-21T13:06:09.254Z,43.96
2023-05-21T13:07:40.978Z,44.57
2023-05-21T13:09:12.583Z,42.83
2023-05-21T13:10:44.290Z,42.59
2023-05-21T13:12:16.010Z,42.69
2023-05-21T13:13:47.721Z,43.15
2023-05-21T13:15:19.397Z,43.09
2023-05-21T13:16:50.968Z,43.58
2023-05-21T13:18:22.861Z,43.02
2023-05-21T13:20:18.336Z,42.19
2023-05-21T13:21:50.046Z,43.05
2023-05-21T13:23:21.650Z,42.71
2023-05-21T13:24:53.318Z,43.33
2023-05-21T13:26:25.011Z,43.46
2023-05-21T13:27:57.449Z,44.28
2023-05-21T13:29:29.445Z,44.86
2023-05-21T13:31:01.232Z,45.41
2023-05-21T13:32:32.976Z,44.04
2023-05-21T13:34:05.624Z,44.79
2023-05-21T13:35:37.879Z,44.60
2023-05-21T13:37:09.513Z,44.75
2023-05-21T13:38:41.163Z,45.13
2023-05-21T13:40:15.287Z,44.90
2023-05-21T13:41:48.322Z,45.44
2023-05-21T13:43:20.035Z,44.64
2023-05-21T13:46:23.337Z,46.23
2023-05-21T13:47:55.877Z,44.50
2023-05-21T13:49:27.581Z,45.24
2023-05-21T13:50:59.201Z,45.05
2023-05-21T13:52:30.994Z,45.89
2023-05-21T13:54:02.787Z,44.98
2023-05-21T13:55:34.425Z,45.39
2023-05-21T13:57:06.367Z,45.55
2023-05-21T13:58:40.470Z,45.24
2023-05-21T14:00:15.561Z,45.49
2023-05-21T14:01:48.109Z,45.36
2023-05-21T14:03:20.475Z,45.41
2023-05-21T14:04:52.163Z,44.97
2023-05-21T14:06:23.837Z,45.37
2023-05-21T14:07:56.116Z,45.06
2023-05-21T14:09:29.716Z,45.09
2023-05-21T14:11:04.004Z,46.33
2023-05-21T14:12:36.619Z,45.86
2023-05-21T14:14:08.252Z,46.47
2023-05-21T14:15:39.870Z,45.06
2023-05-21T14:17:11.569Z,44.79
2023-05-21T14:18:43.165Z,44.98
2023-05-21T14:20:14.906Z,44.76
2023-05-21T14:21:46.623Z,44.39
2023-05-21T14:23:18.228Z,44.65
2023-05-21T14:24:51.185Z,44.00
2023-05-21T14:26:22.919Z,44.87
2023-05-21T14:27:54.647Z,45.24
2023-05-21T14:29:26.405Z,44.79
2023-05-21T14:30:57.990Z,44.28
2023-05-21T14:32:29.688Z,44.45
2023-05-21T14:34:02.975Z,44.93
2023-05-21T14:35:34.811Z,43.83
2023-05-21T14:37:06.657Z,43.64
2023-05-21T14:38:38.383Z,43.86
2023-05-21T14:40:10.477Z,44.62
2023-05-21T14:41:42.114Z,45.28
2023-05-21T14:43:13.897Z,44.64
2023-05-21T14:44:45.526Z,44.34
2023-05-21T14:46:17.156Z,43.73
2023-05-21T14:47:49.001Z,44.57
2023-05-21T14:49:20.828Z,45.30
2023-05-21T14:50:53.611Z,45.50
2023-05-21T14:52:25.346Z,44.10
2023-05-21T14:53:57.643Z,43.90
2023-05-21T14:55:29.629Z,44.44
2023-05-21T14:57:01.219Z,44.07
2023-05-21T14:58:33.015Z,44.22
2023-05-21T15:00:05.610Z,44.07
2023-05-21T15:01:37.353Z,44.59
2023-05-21T15:03:09.038Z,44.43
2023-05-21T15:04:40.856Z,45.55
2023-05-21T15:06:12.456Z,44.68
2023-05-21T15:07:44.326Z,46.06
2023-05-21T15:09:15.980Z,44.90
2023-05-21T15:10:47.655Z,45.36
2023-05-21T15:12:19.393Z,45.51
2023-05-21T15:13:50.960Z,44.78
2023-05-21T15:15:22.815Z,44.92
2023-05-21T15:16:54.537Z,44.11
2023-05-21T15:18:26.301Z,44.01
2023-05-21T15:19:57.912Z,43.15
2023-05-21T15:21:29.611Z,44.13
2023-05-21T15:23:12.707Z,43.94
2023-05-21T15:24:48.227Z,43.04
2023-05-21T15:26:19.994Z,42.87
2023-05-21T15:27:51.652Z,43.10
2023-05-21T15:29:23.327Z,42.72
2023-05-21T15:30:54.992Z,43.72
2023-05-21T15:32:26.626Z,43.43
2023-05-21T15:33:59.702Z,43.85
2023-05-21T15:35:32.272Z,43.28
2023-05-21T15:37:04.414Z,42.60
2023-05-21T15:38:36.459Z,43.89
2023-05-21T15:40:09.303Z,42.57
2023-05-21T15:41:41.023Z,41.57
2023-05-21T15:43:12.744Z,40.90
2023-05-21T15:44:44.449Z,41.24
2023-05-21T15:46:16.348Z,41.84
2023-05-21T15:47:48.219Z,41.51
2023-05-21T15:49:20.382Z,40.59
2023-05-21T15:50:52.096Z,41.26
2023-05-21T15:52:23.687Z,40.38
2023-05-21T15:53:56.013Z,40.84
2023-05-21T15:55:27.703Z,40.20
2023-05-21T15:56:59.392Z,39.80
2023-05-21T15:58:31.556Z,40.68
2023-05-21T16:00:04.022Z,42.13
2023-05-21T16:01:40.520Z,41.62
2023-05-21T16:03:12.716Z,42.12
2023-05-21T16:04:44.412Z,41.12
2023-05-21T16:06:16.213Z,41.16
2023-05-21T16:07:47.834Z,41.19
2023-05-21T16:09:19.599Z,40.35
2023-05-21T16:10:51.170Z,40.65
2023-05-21T16:12:22.948Z,40.80
2023-05-21T16:13:54.907Z,41.55
2023-05-21T16:15:28.494Z,41.91
2023-05-21T16:17:00.265Z,42.29
2023-05-21T16:18:32.865Z,42.53
2023-05-21T16:20:05.854Z,42.65
2023-05-21T16:21:37.647Z,42.63
2023-05-21T16:23:09.386Z,43.00
2023-05-21T16:24:41.087Z,41.80
2023-05-21T16:26:13.000Z,41.85
2023-05-21T16:27:44.629Z,41.18
2023-05-21T16:29:16.696Z,41.74
2023-05-21T16:30:48.317Z,42.75
2023-05-21T16:32:20.184Z,42.92
2023-05-21T16:33:51.905Z,42.36
2023-05-21T16:35:23.537Z,41.86
2023-05-21T16:36:55.254Z,42.77
2023-05-21T16:38:26.954Z,42.34
2023-05-21T16:39:58.558Z,43.39
2023-05-21T16:41:30.246Z,43.04
2023-05-21T16:43:02.415Z,42.29
2023-05-21T16:44:34.400Z,43.06
2023-05-21T16:46:06.136Z,43.07
2023-05-21T16:47:37.839Z,42.68
2023-05-21T16:49:09.545Z,42.97
2023-05-21T16:50:41.375Z,43.15
2023-05-21T16:52:13.058Z,44.07
2023-05-21T16:53:44.784Z,43.64
2023-05-21T16:55:16.406Z,43.78
2023-05-21T16:56:48.079Z,42.78
2023-05-21T16:58:19.873Z,43.48
2023-05-21T16:59:51.621Z,44.31
2023-05-21T17:01:23.354Z,44.36
2023-05-21T17:02:55.377Z,45.12
2023-05-21T17:04:27.121Z,44.99
2023-05-21T17:05:58.747Z,46.63
2023-05-21T17:07:31.437Z,45.90
2023-05-21T17:09:03.840Z,45.85
2023-05-21T17:10:36.052Z,44.98
2023-05-21T17:12:07.867Z,46.32
2023-05-21T17:13:39.567Z,45.40
2023-05-21T17:15:11.374Z,45.84
2023-05-21T17:16:43.136Z,46.07
2023-05-21T17:18:14.990Z,46.12
2023-05-21T17:19:47.393Z,46.52
2023-05-21T17:21:20.046Z,45.86
2023-05-21T17:22:52.249Z,47.00
2023-05-21T17:24:24.751Z,46.47
2023-05-21T17:25:56.451Z,46.96
2023-05-21T17:27:28.144Z,46.45
2023-05-21T17:28:59.895Z,46.75
2023-05-21T17:30:31.527Z,46.51
2023-05-21T17:32:04.454Z,47.61
2023-05-21T17:33:39.608Z,47.57
2023-05-21T17:35:11.430Z,47.81
2023-05-21T17:36:43.125Z,47.98
2023-05-21T17:38:15.073Z,47.27
2023-05-21T17:39:46.791Z,47.93
2023-05-21T17:41:21.767Z,48.84
2023-05-21T17:42:53.541Z,48.95
2023-05-21T17:44:25.284Z,49.44
2023-05-21T17:45:56.960Z,49.34
2023-05-21T17:47:28.653Z,49.01
2023-05-21T17:49:00.395Z,49.17
2023-05-21T17:50:32.103Z,50.12
2023-05-21T17:52:04.572Z,50.04
2023-05-21T17:53:36.180Z,50.41
2023-05-21T17:55:08.199Z,52.61
2023-05-21T17:56:39.907Z,51.51
2023-05-21T17:58:11.607Z,53.32
2023-05-21T17:59:45.317Z,53.21
2023-05-21T18:01:17.005Z,52.83
2023-05-21T18:02:48.734Z,54.12
2023-05-21T18:04:20.554Z,54.68
2023-05-21T18:05:52.199Z,55.52
2023-05-21T18:07:23.877Z,56.13
2023-05-21T18:08:55.481Z,56.60
2023-05-21T18:10:27.238Z,57.45
2023-05-21T18:11:59.973Z,57.96
2023-05-21T18:13:31.892Z,58.80
2023-05-21T18:15:03.676Z,58.95
2023-05-21T18:16:35.555Z,58.43
2023-05-21T18:18:07.526Z,57.34
2023-05-21T18:19:39.260Z,57.72
2023-05-21T18:21:11.265Z,57.19
2023-05-21T18:22:44.018Z,58.33
2023-05-21T18:24:15.851Z,59.50
2023-05-21T18:25:47.518Z,59.36
2023-05-21T18:27:19.164Z,58.43
2023-05-21T18:28:50.952Z,58.14
2023-05-21T18:30:22.531Z,58.95
2023-05-21T18:31:54.314Z,59.02
2023-05-21T18:33:26.198Z,59.94
2023-05-21T18:34:58.793Z,60.49
2023-05-21T18:36:38.337Z,60.75
2023-05-21T18:38:11.189Z,60.90
2023-05-21T18:39:43.029Z,60.50
2023-05-21T18:41:14.941Z,61.00
2023-05-21T18:42:46.842Z,60.93
2023-05-21T18:44:18.903Z,61.33
2023-05-21T18:45:51.329Z,63.34
2023-05-21T18:47:23.251Z,62.70
2023-05-21T18:48:56.017Z,61.75
2023-05-21T18:50:27.726Z,62.00
2023-05-21T18:52:01.050Z,62.13
2023-05-21T18:53:33.591Z,62.37
2023-05-21T18:55:06.598Z,63.50
2023-05-21T18:56:39.148Z,63.43
2023-05-21T18:58:10.962Z,62.99
2023-05-21T18:59:42.569Z,62.76
2023-05-21T19:01:14.466Z,63.12
2023-05-21T19:02:46.914Z,63.26
2023-05-21T19:04:19.957Z,63.49
2023-05-21T19:05:51.586Z,63.53
2023-05-21T19:07:23.443Z,64.25
2023-05-21T19:08:55.290Z,64.91
2023-05-21T19:10:27.002Z,64.96
2023-05-21T19:12:00.574Z,64.97
2023-05-21T19:13:32.222Z,64.98
2023-05-21T19:15:04.226Z,64.88
2023-05-21T19:16:36.025Z,65.02
2023-05-21T19:18:08.276Z,64.56
2023-05-21T19:19:40.411Z,65.21
2023-05-21T19:21:12.150Z,65.30
2023-05-21T19:22:43.865Z,65.21
2023-05-21T19:24:15.458Z,64.97
2023-05-21T19:25:47.265Z,64.84
2023-05-21T19:27:19.442Z,64.96
2023-05-21T19:28:53.791Z,65.10
2023-05-21T19:30:25.922Z,65.81
2023-05-21T19:31:59.149Z,66.00
2023-05-21T19:33:30.944Z,65.95
2023-05-21T19:35:04.695Z,66.76
2023-05-21T19:36:52.394Z,67.38
2023-05-21T19:38:25.401Z,67.34
2023-05-21T19:39:57.531Z,67.82
2023-05-21T19:41:29.330Z,68.03
2023-05-21T19:43:01.332Z,68.51
2023-05-21T19:44:33.455Z,68.66
2023-05-21T19:46:05.388Z,68.41
2023-05-21T19:47:38.197Z,68.10
2023-05-21T19:49:14.585Z,68.85
2023-05-21T19:50:46.535Z,68.57
2023-05-21T19:52:18.698Z,68.08
2023-05-21T19:53:50.489Z,68.45
2023-05-21T19:55:22.818Z,68.33
2023-05-21T19:56:54.676Z,69.41
2023-05-21T19:58:29.728Z,69.20
2023-05-21T20:00:02.258Z,69.29
2023-05-21T20:01:45.339Z,70.27
2023-05-21T20:03:17.979Z,70.09
2023-05-21T20:04:50.969Z,70.09
2023-05-21T20:06:23.122Z,70.68
2023-05-21T20:07:56.431Z,70.79